createdAt,value
2022-11-09T00:01:47.314Z,55.06
2022-11-09T00:04:13.828Z,55.02
2022-11-09T00:06:40.403Z,54.88
2022-11-09T00:09:08.366Z,54.92
2022-11-09T00:11:38.529Z,54.81
2022-11-09T00:14:05.296Z,54.92
2022-11-09T00:16:31.892Z,54.93
2022-11-09T00:18:59.095Z,54.97
2022-11-09T00:21:26.568Z,54.83
2022-11-09T00:23:53.737Z,55.13
2022-11-09T00:26:21.263Z,55.12
2022-11-09T00:28:48.324Z,55.19
2022-11-09T00:31:18.008Z,55.00
2022-11-09T00:33:49.472Z,55.07
2022-11-09T00:36:16.503Z,54.79
2022-11-09T00:38:43.176Z,54.96
2022-11-09T00:41:11.601Z,55.03
2022-11-09T00:43:38.319Z,55.08
2022-11-09T00:46:05.316Z,54.85
2022-11-09T00:48:32.190Z,54.82
2022-11-09T00:50:58.872Z,54.90
2022-11-09T00:53:26.773Z,54.92
2022-11-09T00:56:04.818Z,55.15
2022-11-09T00:58:33.923Z,55.04
2022-11-09T01:01:16.914Z,55.17
2022-11-09T01:03:45.589Z,54.98
2022-11-09T01:06:18.581Z,55.11
2022-11-09T01:08:45.383Z,55.02
2022-11-09T01:11:12.631Z,54.62
2022-11-09T01:13:40.223Z,54.73
2022-11-09T01:16:10.469Z,54.99
2022-11-09T01:18:38.007Z,54.94
2022-11-09T01:21:09.937Z,55.24
2022-11-09T01:23:37.362Z,55.00
2022-11-09T01:26:08.104Z,55.23
2022-11-09T01:28:35.592Z,55.07
2022-11-09T01:31:04.954Z,55.02
2022-11-09T01:33:31.851Z,55.29
2022-11-09T01:36:03.651Z,55.47
2022-11-09T01:38:30.166Z,55.14
2022-11-09T01:40:56.792Z,55.29
2022-11-09T01:43:24.834Z,55.22
2022-11-09T01:46:09.636Z,55.56
2022-11-09T01:48:45.500Z,55.50
2022-11-09T01:51:35.782Z,55.43
2022-11-09T01:54:08.521Z,55.18
2022-11-09T01:56:35.155Z,55.15
2022-11-09T01:59:10.210Z,55.47
2022-11-09T02:01:37.427Z,55.09
2022-11-09T02:04:27.556Z,55.49
2022-11-09T02:06:57.571Z,55.29
2022-11-09T02:09:31.616Z,55.27
2022-11-09T02:11:58.104Z,55.04
2022-11-09T02:14:28.023Z,55.22
2022-11-09T02:16:54.678Z,55.22
2022-11-09T02:19:21.251Z,55.36
2022-11-09T02:21:47.837Z,55.47
2022-11-09T02:24:15.133Z,55.36
2022-11-09T02:26:50.063Z,55.68
2022-11-09T02:29:20.987Z,55.86
2022-11-09T02:31:52.268Z,55.56
2022-11-09T02:34:21.267Z,55.59
2022-11-09T02:36:48.436Z,55.65
2022-11-09T02:39:18.016Z,55.79
2022-11-09T02:41:49.312Z,55.80
2022-11-09T02:44:16.610Z,55.77
2022-11-09T02:46:43.187Z,55.77
2022-11-09T02:49:09.704Z,55.74
2022-11-09T02:51:36.691Z,56.00
2022-11-09T02:54:03.620Z,55.96
2022-11-09T02:56:30.234Z,56.00
2022-11-09T02:58:56.728Z,56.03
2022-11-09T03:01:23.460Z,56.00
2022-11-09T03:03:50.040Z,56.19
2022-11-09T03:06:16.547Z,56.13
2022-11-09T03:08:43.068Z,56.13
2022-11-09T03:11:09.577Z,56.15
2022-11-09T03:13:36.359Z,56.24
2022-11-09T03:16:07.049Z,56.45
2022-11-09T03:18:33.737Z,56.32
2022-11-09T03:21:05.369Z,56.41
2022-11-09T03:23:32.678Z,56.25
2022-11-09T03:25:59.247Z,56.00
2022-11-09T03:28:26.397Z,56.04
2022-11-09T03:30:52.856Z,56.23
2022-11-09T03:33:20.084Z,56.14
2022-11-09T03:35:46.935Z,56.41
2022-11-09T03:38:13.619Z,56.31
2022-11-09T03:40:40.464Z,56.38
2022-11-09T03:43:07.083Z,56.59
2022-11-09T03:45:33.851Z,56.61
2022-11-09T03:48:00.659Z,56.70
2022-11-09T03:50:29.512Z,56.65
2022-11-09T03:52:56.506Z,56.55
2022-11-09T03:55:23.336Z,56.54
2022-11-09T03:57:50.255Z,56.51
2022-11-09T04:00:19.234Z,56.54
2022-11-09T04:02:46.018Z,56.20
2022-11-09T04:05:12.997Z,56.19
2022-11-09T04:07:39.781Z,56.21
2022-11-09T04:10:07.161Z,56.19
2022-11-09T04:12:33.668Z,56.25
2022-11-09T04:15:00.220Z,56.25
2022-11-09T04:17:26.700Z,56.41
2022-11-09T04:19:53.179Z,56.41
2022-11-09T04:22:19.709Z,56.46
2022-11-09T04:24:46.305Z,56.51
2022-11-09T04:27:12.821Z,56.46
2022-11-09T04:29:39.411Z,56.59
2022-11-09T04:32:05.996Z,56.50
2022-11-09T04:34:32.760Z,56.58
2022-11-09T04:36:59.283Z,56.42
2022-11-09T04:39:25.862Z,56.67
2022-11-09T04:41:52.349Z,56.29
2022-11-09T04:44:21.239Z,56.42
2022-11-09T04:46:47.765Z,56.38
2022-11-09T04:49:14.248Z,56.29
2022-11-09T04:51:40.798Z,56.22
2022-11-09T04:54:07.487Z,56.29
2022-11-09T04:56:34.042Z,56.26
2022-11-09T04:59:00.559Z,56.07
2022-11-09T05:01:27.090Z,56.09
2022-11-09T05:03:53.713Z,56.02
2022-11-09T05:06:32.410Z,55.96
2022-11-09T05:09:01.031Z,56.12
2022-11-09T05:11:28.212Z,56.09
2022-11-09T05:13:54.655Z,56.04
2022-11-09T05:16:23.093Z,55.92
2022-11-09T05:18:50.362Z,55.77
2022-11-09T05:21:17.617Z,55.81
2022-11-09T05:23:59.826Z,55.71
2022-11-09T05:26:30.849Z,55.82
2022-11-09T05:28:59.241Z,55.83
2022-11-09T05:31:27.447Z,55.86
2022-11-09T05:33:54.747Z,55.63
2022-11-09T05:36:22.375Z,55.70
2022-11-09T05:38:49.392Z,55.79
2022-11-09T05:41:16.804Z,55.77
2022-11-09T05:43:47.486Z,55.93
2022-11-09T05:46:15.644Z,55.84
2022-11-09T05:48:43.283Z,55.88
2022-11-09T05:51:11.987Z,55.83
2022-11-09T05:53:45.009Z,55.94
2022-11-09T05:56:14.321Z,55.93
2022-11-09T05:58:41.490Z,55.90
2022-11-09T06:01:13.523Z,56.15
2022-11-09T06:03:42.124Z,56.03
2022-11-09T06:06:10.635Z,55.99
2022-11-09T06:08:37.442Z,56.12
2022-11-09T06:11:06.720Z,56.26
2022-11-09T06:13:33.932Z,56.21
2022-11-09T06:16:02.580Z,56.20
2022-11-09T06:18:31.138Z,56.25
2022-11-09T06:21:02.818Z,56.48
2022-11-09T06:23:30.460Z,56.16
2022-11-09T06:25:58.880Z,56.27
2022-11-09T06:28:26.068Z,56.18
2022-11-09T06:30:52.955Z,56.22
2022-11-09T06:33:19.707Z,55.97
2022-11-09T06:35:46.531Z,55.96
2022-11-09T06:38:13.148Z,56.07
2022-11-09T06:40:39.729Z,56.06
2022-11-09T06:43:06.763Z,56.07
2022-11-09T06:45:33.997Z,56.06
2022-11-09T06:48:02.929Z,56.18
2022-11-09T06:50:33.191Z,56.34
2022-11-09T06:53:01.679Z,56.35
2022-11-09T06:55:29.193Z,56.32
2022-11-09T06:57:56.349Z,56.44
2022-11-09T07:00:24.030Z,56.41
2022-11-09T07:02:51.043Z,56.58
2022-11-09T07:05:17.689Z,56.65
2022-11-09T07:07:44.574Z,56.61
2022-11-09T07:10:11.748Z,56.70
2022-11-09T07:12:38.315Z,56.68
2022-11-09T07:15:05.336Z,56.74
2022-11-09T07:17:33.703Z,56.88
2022-11-09T07:20:00.386Z,56.79
2022-11-09T07:22:30.002Z,57.08
2022-11-09T07:24:56.678Z,57.08
2022-11-09T07:27:27.984Z,57.10
2022-11-09T07:29:54.792Z,57.04
2022-11-09T07:32:27.403Z,57.19
2022-11-09T07:35:08.147Z,57.30
2022-11-09T07:37:34.717Z,57.23
2022-11-09T07:40:01.220Z,57.31
2022-11-09T07:42:27.816Z,57.41
2022-11-09T07:44:54.368Z,57.52
2022-11-09T07:47:21.112Z,57.65
2022-11-09T07:49:47.686Z,57.55
2022-11-09T07:52:14.302Z,57.55
2022-11-09T07:54:41.248Z,57.64
2022-11-09T07:57:08.143Z,57.72
2022-11-09T07:59:34.731Z,57.72
2022-11-09T08:02:01.318Z,57.89
2022-11-09T08:04:28.022Z,57.92
2022-11-09T08:06:54.740Z,57.89
2022-11-09T08:09:21.414Z,58.11
2022-11-09T08:11:47.852Z,57.91
2022-11-09T08:14:14.369Z,58.18
2022-11-09T08:16:40.944Z,58.06
2022-11-09T08:19:09.611Z,58.29
2022-11-09T08:21:39.170Z,58.79
2022-11-09T08:24:06.042Z,58.62
2022-11-09T08:26:32.982Z,58.72
2022-11-09T08:28:59.645Z,58.46
2022-11-09T08:31:26.370Z,58.30
2022-11-09T08:33:52.839Z,58.20
2022-11-09T08:36:19.458Z,58.19
2022-11-09T08:38:46.338Z,58.16
2022-11-09T08:41:14.084Z,58.20
2022-11-09T08:43:41.335Z,58.44
2022-11-09T08:46:08.073Z,58.42
2022-11-09T08:48:34.783Z,58.39
2022-11-09T08:51:01.420Z,58.49
2022-11-09T08:53:29.207Z,58.66
2022-11-09T08:55:56.086Z,58.52
2022-11-09T08:58:23.074Z,58.67
2022-11-09T09:00:49.724Z,58.52
2022-11-09T09:03:16.498Z,58.54
2022-11-09T09:05:42.982Z,58.26
2022-11-09T09:08:11.643Z,58.00
2022-11-09T09:10:38.288Z,57.78
2022-11-09T09:13:05.139Z,57.72
2022-11-09T09:15:32.087Z,57.57
2022-11-09T09:18:05.892Z,57.17
2022-11-09T09:20:32.785Z,57.28
2022-11-09T09:23:00.425Z,57.24
2022-11-09T09:25:27.846Z,57.02
2022-11-09T09:27:54.360Z,56.97
2022-11-09T09:30:20.929Z,56.73
2022-11-09T09:32:47.469Z,56.61
2022-11-09T09:35:14.568Z,56.57
2022-11-09T09:37:41.040Z,56.64
2022-11-09T09:40:08.246Z,56.56
2022-11-09T09:42:43.371Z,56.62
2022-11-09T09:45:19.251Z,56.42
2022-11-09T09:47:54.534Z,56.03
2022-11-09T09:50:37.794Z,55.87
2022-11-09T09:53:23.833Z,55.49
2022-11-09T09:55:57.265Z,55.73
2022-11-09T09:58:27.357Z,55.72
2022-11-09T10:01:05.639Z,56.19
2022-11-09T10:03:32.331Z,56.44
2022-11-09T10:06:13.573Z,56.16
2022-11-09T10:09:22.338Z,55.58
2022-11-09T10:12:22.156Z,54.78
2022-11-09T10:15:03.842Z,54.98
2022-11-09T10:17:37.052Z,55.08
2022-11-09T10:20:17.577Z,54.67
2022-11-09T10:23:11.856Z,54.65
2022-11-09T10:28:37.975Z,54.45
2022-11-09T10:31:21.395Z,54.50
2022-11-09T10:33:54.197Z,54.73
2022-11-09T10:36:53.727Z,55.09
2022-11-09T10:39:24.988Z,55.08
2022-11-09T17:13:52.911Z,52.38
2022-11-09T17:16:20.366Z,51.96
2022-11-09T17:18:46.875Z,52.29
2022-11-09T17:21:14.269Z,52.48
2022-11-09T17:23:44.317Z,52.87
2022-11-09T17:26:11.589Z,52.65
2022-11-09T17:28:42.901Z,52.86
2022-11-09T17:31:15.794Z,53.16
2022-11-09T17:33:42.953Z,53.17
2022-11-09T17:36:11.455Z,53.17
2022-11-09T17:38:38.539Z,53.27
2022-11-09T17:41:12.126Z,53.73
2022-11-09T17:43:40.687Z,53.41
2022-11-09T17:46:16.213Z,53.93
2022-11-09T17:48:44.771Z,53.72
2022-11-09T17:51:12.921Z,53.68
2022-11-09T17:53:40.216Z,53.51
2022-11-09T17:56:10.309Z,53.55
2022-11-09T17:58:42.138Z,54.03
2022-11-09T18:01:17.597Z,53.98
2022-11-09T18:03:44.503Z,53.64
2022-11-09T18:06:16.218Z,53.86
2022-11-09T18:08:43.891Z,53.69
2022-11-09T18:11:11.150Z,53.68
2022-11-09T18:13:38.451Z,53.91
2022-11-09T18:16:17.279Z,53.94
2022-11-09T18:18:45.198Z,53.80
2022-11-09T18:21:15.418Z,54.01
2022-11-09T18:23:43.171Z,53.85
2022-11-09T18:26:10.735Z,54.08
2022-11-09T18:28:37.358Z,53.98
2022-11-09T18:31:07.282Z,54.39
2022-11-09T18:33:33.942Z,54.25
2022-11-09T18:36:06.825Z,54.90
2022-11-09T18:38:33.928Z,54.34
2022-11-09T18:41:04.209Z,54.46
2022-11-09T18:43:31.230Z,54.63
2022-11-09T18:46:02.911Z,54.59
2022-11-09T18:48:29.480Z,54.57
2022-11-09T18:50:57.344Z,54.75
2022-11-09T18:53:26.816Z,54.90
2022-11-09T18:56:06.444Z,55.02
2022-11-09T18:58:34.134Z,54.75
2022-11-09T19:01:07.921Z,55.17
2022-11-09T19:03:34.880Z,54.83
2022-11-09T19:06:11.492Z,55.29
2022-11-09T19:08:56.560Z,54.78
2022-11-09T19:11:23.038Z,54.87
2022-11-09T19:13:49.592Z,55.04
2022-11-09T19:16:17.296Z,55.44
2022-11-09T19:18:43.977Z,55.38
2022-11-09T19:21:36.440Z,56.31
2022-11-09T19:24:04.440Z,55.69
2022-11-09T19:26:31.138Z,55.70
2022-11-09T19:28:58.059Z,55.71
2022-11-09T19:31:25.165Z,55.87
2022-11-09T19:33:51.830Z,55.94
2022-11-09T19:36:34.853Z,55.93
2022-11-09T19:39:02.146Z,55.84
2022-11-09T19:41:29.396Z,55.95
2022-11-09T19:43:58.698Z,56.09
2022-11-09T19:46:26.731Z,56.06
2022-11-09T19:48:53.375Z,56.10
2022-11-09T19:51:19.883Z,56.20
2022-11-09T19:53:54.717Z,56.73
2022-11-09T19:56:23.297Z,56.25
2022-11-09T19:58:51.686Z,56.18
2022-11-09T20:01:19.192Z,56.11
2022-11-09T20:03:54.385Z,56.74
2022-11-09T20:06:23.070Z,56.25
2022-11-09T20:08:50.099Z,56.23
2022-11-09T20:11:37.448Z,56.30
2022-11-09T20:14:05.485Z,56.33
2022-11-09T20:16:33.426Z,56.18
2022-11-09T20:19:01.199Z,56.38
2022-11-09T20:21:27.879Z,56.58
2022-11-09T20:23:54.887Z,56.50
2022-11-09T20:26:21.383Z,56.63
2022-11-09T20:28:47.814Z,56.73
2022-11-09T20:31:17.052Z,56.83
2022-11-09T20:33:43.534Z,56.64
2022-11-09T20:36:10.144Z,56.60
2022-11-09T20:38:36.657Z,56.77
2022-11-09T20:41:05.457Z,57.07
2022-11-09T20:43:32.341Z,57.12
2022-11-09T20:46:07.239Z,57.70
2022-11-09T20:51:21.136Z,57.21
2022-11-09T20:53:49.659Z,57.24
2022-11-09T20:56:16.762Z,57.32
2022-11-09T20:58:43.351Z,57.08
2022-11-09T21:01:15.756Z,57.96
2022-11-09T21:03:43.039Z,57.43
2022-11-09T21:06:10.900Z,57.43
2022-11-09T21:08:37.626Z,57.49
2022-11-09T21:11:06.272Z,57.61
2022-11-09T21:13:33.333Z,57.52
2022-11-09T21:16:14.558Z,58.31
2022-11-09T21:18:42.109Z,57.91
2022-11-09T21:21:14.077Z,57.85
2022-11-09T21:23:59.338Z,57.69
2022-11-09T21:27:05.499Z,58.01
2022-11-09T21:29:50.258Z,57.87
2022-11-09T21:32:17.334Z,58.12
2022-11-09T21:34:43.973Z,57.99
2022-11-09T21:37:10.595Z,58.16
2022-11-09T21:39:37.368Z,58.17
2022-11-09T21:42:04.643Z,58.27
2022-11-09T21:44:32.755Z,58.27
2022-11-09T21:47:00.001Z,58.38
2022-11-09T21:49:27.028Z,58.53
2022-11-09T21:51:54.308Z,58.56
2022-11-09T21:54:21.696Z,58.68
2022-11-09T21:56:49.105Z,58.76
2022-11-09T21:59:15.648Z,58.57
2022-11-09T22:01:42.499Z,58.58
2022-11-09T22:04:09.606Z,58.75
2022-11-09T22:06:39.105Z,59.01
2022-11-09T22:09:08.069Z,59.16
2022-11-09T22:11:53.135Z,59.39
2022-11-09T22:14:39.130Z,59.21
2022-11-09T22:17:09.911Z,58.95
2022-11-09T22:19:58.332Z,59.42
2022-11-09T22:22:28.170Z,59.78
2022-11-09T22:24:55.135Z,59.61
2022-11-09T22:27:22.418Z,59.44
2022-11-09T22:29:49.018Z,59.60
2022-11-09T22:32:15.576Z,59.72
2022-11-09T22:34:42.112Z,59.91
2022-11-09T22:37:08.875Z,59.72
2022-11-09T22:39:35.424Z,59.72
2022-11-09T22:42:01.965Z,59.55
2022-11-09T22:44:28.531Z,59.71
2022-11-09T22:46:55.124Z,59.70
2022-11-09T22:49:21.703Z,59.81
2022-11-09T22:51:48.344Z,59.87
2022-11-09T22:54:14.888Z,59.76
2022-11-09T22:56:41.407Z,59.98
2022-11-09T22:59:08.212Z,59.94
2022-11-09T23:01:34.977Z,60.16
2022-11-09T23:04:01.824Z,60.16
2022-11-09T23:06:29.180Z,60.28
2022-11-09T23:08:55.827Z,60.41
2022-11-09T23:11:23.870Z,60.46
2022-11-09T23:13:54.889Z,60.91
2022-11-09T23:16:22.921Z,60.34
2022-11-09T23:18:56.101Z,60.46
2022-11-09T23:21:34.465Z,61.70
2022-11-09T23:24:27.832Z,61.42
2022-11-09T23:26:54.325Z,60.55
2022-11-09T23:29:20.805Z,60.44
2022-11-09T23:31:47.282Z,60.63
2022-11-09T23:34:13.711Z,60.73
2022-11-09T23:36:40.183Z,60.73
2022-11-09T23:39:06.635Z,60.68
2022-11-09T23:41:33.147Z,60.70
2022-11-09T23:43:59.533Z,60.56
2022-11-09T23:46:25.990Z,60.80
2022-11-09T23:48:52.480Z,60.81
2022-11-09T23:51:19.044Z,61.18
2022-11-09T23:53:45.496Z,61.07
2022-11-09T23:56:12.147Z,60.98
2022-11-09T23:58:38.874Z,61.15
